This is the latest recevied weather packets stored in our database for station/object EA5GK-10. If no packets are shown the sender has not sent any weather packets the latest 10 day(s).
| Time | Temp. | Humidity | Pressure | Rain* | Wind** | Luminosity | Snow |
|---|---|---|---|---|---|---|---|
| 1787480680 | 32.78° C | 40% | 1017.4 hPa | - | - | - | - |
| 1787479780 | 32.22° C | 41% | 1017.4 hPa | - | - | - | - |
| 1787478880 | 32.22° C | 41% | 1017.4 hPa | - | - | - | - |
| 1787477980 | 31.67° C | 42% | 1017.4 hPa | - | - | - | - |
| 1787477080 | 31.11° C | 43% | 1017.4 hPa | - | - | - | - |
| 1787476180 | 31.11° C | 44% | 1017.4 hPa | - | - | - | - |
| 1787475280 | 30.56° C | 43% | 1017.5 hPa | - | - | - | - |
| 1787474379 | 30° C | 44% | 1017.6 hPa | - | - | - | - |
| 1787473478 | 30° C | 45% | 1017.6 hPa | - | - | - | - |
| 1787472578 | 29.44° C | 46% | 1017.6 hPa | - | - | - | - |
| 1787471692 | 28.89° C | 46% | 1017.6 hPa | - | - | - | - |
| 1787470792 | 28.33° C | 47% | 1017.7 hPa | - | - | - | - |
| 1787469892 | 27.22° C | 48% | 1017.7 hPa | - | - | - | - |
| 1787468991 | 25.56° C | 53% | 1017.9 hPa | - | - | - | - |
| 1787468091 | 25.56° C | 53% | 1017.7 hPa | - | - | - | - |
| 1787467191 | 25° C | 53% | 1017.6 hPa | - | - | - | - |
| 1787466291 | 25° C | 54% | 1017.3 hPa | - | - | - | - |
| 1787465391 | 25° C | 54% | 1017 hPa | - | - | - | - |
| 1787464491 | 24.44° C | 55% | 1016.9 hPa | - | - | - | - |
| 1787463591 | 24.44° C | 54% | 1016.8 hPa | - | - | - | - |
| 1787462690 | 24.44° C | 55% | 1016.7 hPa | - | - | - | - |
| 1787461790 | 25° C | 55% | 1016.6 hPa | - | - | - | - |
| 1787460890 | 25° C | 55% | 1016.4 hPa | - | - | - | - |
| 1787459990 | 25° C | 54% | 1016.4 hPa | - | - | - | - |
| 1787459090 | 25° C | 54% | 1016.5 hPa | - | - | - | - |
* Rain since midnight (hover to see other rain measurements)
** Current wind speed in m/s (hover to see current wind gust speed)